Time;durP1;ratioP1;P1;durP2;ratioP2;P2;SDS_P1;SDS_P2;PMS_P1;PMS_P2;Temp;Humidity;BMP_temperature;BMP_pressure;BME280_temperature;BME280_humidity;BME280_pressure;Samples;Min_cycle;Max_cycle;Signal;HPM_P1;HPM_P2
2022/04/29 00:00:53;;;;;;;16.83;14.07;;;;;;;7.46;100.00;97386.09;5111550;27;20078;-48
2022/04/29 00:03:24;;;;;;;17.08;15.25;;;;;;;7.45;100.00;97391.47;5125919;27;20067;-47
2022/04/29 00:05:55;;;;;;;18.88;14.57;;;;;;;7.33;100.00;97385.25;5101747;28;20437;-47
2022/04/29 00:08:23;;;;;;;16.92;14.45;;;;;;;7.25;100.00;97383.13;5101513;28;20066;-51
2022/04/29 00:10:51;;;;;;;18.75;15.05;;;;;;;7.13;100.00;97363.81;5117476;27;20071;-49
2022/04/29 00:13:20;;;;;;;17.77;14.85;;;;;;;6.94;100.00;97372.97;5122523;27;20059;-48
2022/04/29 00:15:50;;;;;;;19.10;15.00;;;;;;;6.89;100.00;97374.13;5125314;27;20065;-47
2022/04/29 00:18:18;;;;;;;19.23;15.43;;;;;;;7.08;100.00;97370.28;5125430;27;20066;-45
2022/04/29 00:20:49;;;;;;;17.58;15.18;;;;;;;7.25;100.00;97363.94;5107949;28;20087;-47
2022/04/29 00:23:17;;;;;;;17.05;14.30;;;;;;;6.95;100.00;97365.03;5107025;28;20101;-52
2022/04/29 00:25:46;;;;;;;15.15;13.55;;;;;;;6.99;100.00;97360.41;5115251;27;20092;-46
2022/04/29 00:28:14;;;;;;;18.33;14.52;;;;;;;6.78;100.00;97362.63;5127550;27;20062;-48
2022/04/29 00:30:42;;;;;;;16.63;14.27;;;;;;;6.49;100.00;97369.72;5127022;27;20520;-49
2022/04/29 00:33:12;;;;;;;18.92;15.50;;;;;;;6.52;100.00;97372.16;5125395;27;20062;-47
2022/04/29 00:35:40;;;;;;;21.05;15.73;;;;;;;6.76;100.00;97364.50;5107379;28;20067;-46
2022/04/29 00:38:10;;;;;;;19.48;15.82;;;;;;;6.74;100.00;97354.09;5106707;27;20569;-51
2022/04/29 00:40:38;;;;;;;17.60;15.57;;;;;;;6.64;100.00;97360.88;5105982;28;20070;-45
2022/04/29 00:43:07;;;;;;;18.25;14.63;;;;;;;6.82;100.00;97351.84;5107026;28;20063;-51
2022/04/29 00:45:35;;;;;;;16.25;13.77;;;;;;;6.76;100.00;97352.25;5105840;28;20063;-51
2022/04/29 00:48:04;;;;;;;15.45;13.25;;;;;;;6.56;100.00;97350.91;5104120;28;20075;-50
2022/04/29 00:50:34;;;;;;;15.48;13.45;;;;;;;6.21;100.00;97347.88;5108778;28;20087;-50
2022/04/29 00:53:03;;;;;;;17.67;13.90;;;;;;;6.32;100.00;97339.34;5106676;28;20470;-51
2022/04/29 00:55:31;;;;;;;16.58;13.68;;;;;;;6.21;100.00;97344.44;5104196;28;20067;-50
2022/04/29 00:58:04;;;;;;;18.92;14.57;;;;;;;6.42;100.00;97338.66;5102884;28;20067;-51
2022/04/29 01:00:32;;;;;;;18.70;15.35;;;;;;;6.14;100.00;97341.34;5100635;28;20100;-47
2022/04/29 01:03:01;;;;;;;18.15;14.77;;;;;;;6.20;100.00;97334.91;5106144;28;20075;-46
2022/04/29 01:05:31;;;;;;;18.02;14.35;;;;;;;6.21;100.00;97345.28;5105306;28;20086;-55
2022/04/29 01:08:01;;;;;;;18.30;15.73;;;;;;;5.91;100.00;97340.13;5105949;28;22043;-49
2022/04/29 01:10:30;;;;;;;19.08;15.00;;;;;;;6.21;100.00;97332.16;5118000;27;20421;-52
2022/04/29 01:12:59;;;;;;;17.52;14.02;;;;;;;5.98;100.00;97332.75;5114412;27;20071;-53
2022/04/29 01:15:28;;;;;;;16.58;13.80;;;;;;;5.79;100.00;97331.25;5107462;28;20063;-46
2022/04/29 01:17:58;;;;;;;19.45;15.80;;;;;;;6.09;100.00;97327.69;5104540;28;20075;-46
2022/04/29 01:20:28;;;;;;;20.40;15.67;;;;;;;6.15;100.00;97319.47;5122025;27;21435;-44
2022/04/29 01:22:58;;;;;;;22.45;15.90;;;;;;;6.06;100.00;97322.66;5126742;27;20067;-45
2022/04/29 01:25:26;;;;;;;18.67;15.77;;;;;;;6.07;100.00;97313.88;5125966;27;20519;-44
2022/04/29 01:27:54;;;;;;;18.08;15.35;;;;;;;6.16;100.00;97314.13;5115323;27;20079;-44
2022/04/29 01:30:23;;;;;;;19.95;15.52;;;;;;;6.20;100.00;97308.72;5102247;27;20525;-48
2022/04/29 01:32:53;;;;;;;18.95;15.50;;;;;;;6.10;100.00;97319.75;5099393;28;20080;-44
2022/04/29 01:35:21;;;;;;;17.55;13.82;;;;;;;6.03;100.00;97323.69;5106256;27;20059;-51
2022/04/29 01:37:49;;;;;;;18.25;14.13;;;;;;;5.66;100.00;97323.28;5117981;27;20067;-52
2022/04/29 01:40:19;;;;;;;18.13;14.75;;;;;;;5.66;100.00;97331.13;5128144;27;20073;-49
2022/04/29 01:42:47;;;;;;;16.60;13.65;;;;;;;5.64;100.00;97333.03;5122430;27;20133;-46
2022/04/29 01:45:16;;;;;;;16.10;13.90;;;;;;;5.62;100.00;97331.44;5126176;27;20075;-45
2022/04/29 01:47:44;;;;;;;17.95;14.48;;;;;;;5.62;100.00;97324.41;5124034;27;20062;-51
2022/04/29 01:50:12;;;;;;;18.52;14.82;;;;;;;5.57;100.00;97330.84;5126204;27;20077;-53
2022/04/29 01:52:41;;;;;;;18.65;14.88;;;;;;;5.30;100.00;97330.72;5126976;27;20073;-47
2022/04/29 01:55:09;;;;;;;20.90;15.70;;;;;;;5.42;100.00;97327.38;5125841;27;20070;-44
2022/04/29 01:57:39;;;;;;;18.50;15.02;;;;;;;5.70;100.00;97331.78;5125982;27;20083;-48
2022/04/29 02:00:10;;;;;;;18.53;15.80;;;;;;;5.53;100.00;97334.59;5126385;27;20397;-46
2022/04/29 02:02:38;;;;;;;22.33;15.43;;;;;;;5.70;100.00;97321.31;5126765;27;20635;-46
2022/04/29 02:05:07;;;;;;;18.25;16.23;;;;;;;5.50;100.00;97321.69;5125957;27;20070;-52
2022/04/29 02:07:36;;;;;;;20.10;16.13;;;;;;;5.43;100.00;97326.44;5122639;27;20077;-45
2022/04/29 02:10:05;;;;;;;20.75;16.02;;;;;;;5.38;100.00;97315.44;5123346;27;20059;-51
2022/04/29 02:12:35;;;;;;;29.05;15.57;;;;;;;5.36;100.00;97318.13;5126507;27;20515;-53
2022/04/29 02:15:06;;;;;;;21.42;15.55;;;;;;;5.41;100.00;97318.69;5124263;28;20116;-54
2022/04/29 02:17:35;;;;;;;19.98;16.15;;;;;;;5.46;100.00;97315.81;5127454;27;20039;-45
2022/04/29 02:20:04;;;;;;;18.98;15.43;;;;;;;5.40;100.00;97310.94;5125417;28;20085;-46
2022/04/29 02:22:32;;;;;;;18.45;15.40;;;;;;;5.25;100.00;97307.47;5124970;27;20066;-47
2022/04/29 02:25:00;;;;;;;19.17;15.23;;;;;;;5.40;100.00;97298.72;5126414;27;20072;-49
2022/04/29 02:27:29;;;;;;;18.52;15.32;;;;;;;5.27;100.00;97295.16;5120001;28;20402;-50
2022/04/29 02:29:57;;;;;;;18.98;15.43;;;;;;;5.12;100.00;97296.88;5108109;28;20390;-45
2022/04/29 02:32:27;;;;;;;19.17;13.98;;;;;;;5.21;100.00;97306.81;5099407;28;20063;-45
2022/04/29 02:34:55;;;;;;;17.70;14.68;;;;;;;5.06;100.00;97294.66;5108142;28;20059;-50
2022/04/29 02:37:24;;;;;;;19.35;14.52;;;;;;;5.11;100.00;97307.44;5112683;28;20067;-45
2022/04/29 02:39:52;;;;;;;17.63;14.43;;;;;;;5.07;100.00;97306.78;5112785;28;20091;-48
2022/04/29 02:42:20;;;;;;;16.15;13.63;;;;;;;5.14;100.00;97299.41;5111683;27;20066;-46
2022/04/29 02:44:49;;;;;;;16.17;14.13;;;;;;;5.03;100.00;97296.59;5112764;28;20723;-45
2022/04/29 02:47:17;;;;;;;21.67;15.35;;;;;;;4.80;100.00;97305.75;5112775;28;20138;-51
2022/04/29 02:49:48;;;;;;;20.33;15.18;;;;;;;5.02;100.00;97306.19;5112400;28;20067;-53
2022/04/29 02:52:16;;;;;;;18.15;15.27;;;;;;;5.02;100.00;97307.97;5111920;28;20086;-48
2022/04/29 02:54:44;;;;;;;20.35;16.52;;;;;;;5.05;100.00;97303.41;5112638;28;20083;-47
2022/04/29 02:57:13;;;;;;;19.00;15.23;;;;;;;5.01;100.00;97304.50;5110806;28;20091;-46
2022/04/29 02:59:41;;;;;;;20.13;15.63;;;;;;;4.81;100.00;97303.03;5110165;28;20513;-49
2022/04/29 03:02:10;;;;;;;19.25;15.68;;;;;;;4.68;100.00;97295.09;5110784;28;20544;-46
2022/04/29 03:04:39;;;;;;;21.15;14.52;;;;;;;4.64;100.00;97293.56;5111602;27;20056;-50
2022/04/29 03:07:09;;;;;;;20.83;15.70;;;;;;;4.60;100.00;97286.00;5105760;27;20537;-47
2022/04/29 03:09:37;;;;;;;20.38;15.82;;;;;;;4.75;100.00;97293.81;5110521;28;20064;-51
2022/04/29 03:12:09;;;;;;;17.23;14.88;;;;;;;4.80;100.00;97282.25;5107816;27;20086;-51
2022/04/29 03:14:37;;;;;;;16.95;13.85;;;;;;;4.69;100.00;97281.09;5105440;28;20087;-54
2022/04/29 03:17:05;;;;;;;19.17;15.27;;;;;;;4.71;100.00;97281.84;5107165;28;20103;-49
2022/04/29 03:19:33;;;;;;;16.88;14.68;;;;;;;4.59;100.00;97276.47;5121600;27;20684;-45
2022/04/29 03:22:02;;;;;;;19.50;14.23;;;;;;;4.44;100.00;97276.44;5130475;27;20533;-53
2022/04/29 03:24:34;;;;;;;19.40;16.17;;;;;;;4.38;100.00;97279.38;5132062;27;20061;-45
2022/04/29 03:27:02;;;;;;;16.77;14.18;;;;;;;4.54;100.00;97271.50;5129006;27;20077;-50
2022/04/29 03:29:32;;;;;;;20.08;15.20;;;;;;;4.56;100.00;97274.03;5103952;28;20176;-45
2022/04/29 03:32:00;;;;;;;18.75;15.38;;;;;;;4.52;100.00;97279.44;5111152;28;20067;-48
2022/04/29 03:34:28;;;;;;;20.30;15.77;;;;;;;4.63;100.00;97280.59;5105677;28;20094;-48
2022/04/29 03:36:56;;;;;;;20.63;16.50;;;;;;;4.75;100.00;97280.75;5117841;27;20066;-49
2022/04/29 03:39:25;;;;;;;20.98;16.92;;;;;;;4.75;100.00;97287.75;5132050;27;20456;-47
2022/04/29 03:41:55;;;;;;;19.50;15.55;;;;;;;4.94;100.00;97282.28;5118970;27;20533;-47
2022/04/29 03:44:23;;;;;;;20.67;15.65;;;;;;;4.82;100.00;97280.38;5125671;27;20071;-48
2022/04/29 03:46:52;;;;;;;33.95;16.58;;;;;;;4.90;100.00;97279.00;5113220;27;20086;-50
2022/04/29 03:49:38;;;;;;;19.90;15.95;;;;;;;4.97;100.00;97276.88;5116486;27;20067;-47
2022/04/29 03:52:07;;;;;;;21.80;15.65;;;;;;;4.81;100.00;97279.53;5115058;27;21019;-47
2022/04/29 03:54:36;;;;;;;22.02;15.18;;;;;;;4.86;100.00;97274.06;5105859;28;20070;-49
2022/04/29 03:57:06;;;;;;;17.77;14.20;;;;;;;4.71;100.00;97276.63;5107034;28;20083;-46
2022/04/29 03:59:34;;;;;;;16.52;13.45;;;;;;;4.41;100.00;97284.44;5104371;28;20086;-44
2022/04/29 04:02:05;;;;;;;19.50;14.43;;;;;;;4.41;100.00;97275.75;5098819;28;20091;-48
2022/04/29 04:04:33;;;;;;;17.65;13.82;;;;;;;4.41;100.00;97279.22;5123618;27;20077;-53
2022/04/29 04:07:02;;;;;;;22.27;13.95;;;;;;;4.26;100.00;97282.66;5123103;27;20101;-51
2022/04/29 04:09:30;;;;;;;17.50;14.10;;;;;;;4.20;100.00;97277.81;5126431;27;20055;-47
2022/04/29 04:11:59;;;;;;;15.13;12.57;;;;;;;4.38;100.00;97282.00;5129411;27;20082;-55
2022/04/29 04:14:29;;;;;;;16.35;13.10;;;;;;;4.48;100.00;97280.53;5102055;28;20308;-48
2022/04/29 04:16:58;;;;;;;15.02;12.68;;;;;;;4.70;100.00;97285.38;5102836;28;20071;-49
2022/04/29 04:19:26;;;;;;;16.67;12.85;;;;;;;4.81;100.00;97283.91;5101928;28;20078;-50
2022/04/29 04:21:54;;;;;;;19.98;15.65;;;;;;;4.84;100.00;97291.59;5110216;27;20548;-51
2022/04/29 04:24:23;;;;;;;18.10;14.20;;;;;;;4.61;100.00;97288.53;5123345;27;20039;-55
2022/04/29 04:26:51;;;;;;;20.73;14.95;;;;;;;5.11;100.00;97291.75;5121158;27;20076;-51
2022/04/29 04:29:19;;;;;;;19.10;15.52;;;;;;;5.26;100.00;97290.81;5119847;27;20073;-49
2022/04/29 04:31:49;;;;;;;18.23;15.13;;;;;;;4.99;100.00;97298.56;5127819;27;20070;-49
2022/04/29 04:37:07;;;;;;;19.80;15.75;;;;;;;5.30;100.00;97301.94;5106541;28;20067;-54
2022/04/29 04:39:35;;;;;;;18.85;14.90;;;;;;;5.76;100.00;97292.16;5105075;27;20067;-49
2022/04/29 04:42:06;;;;;;;18.08;14.98;;;;;;;5.91;100.00;97299.06;5110724;27;20466;-47
2022/04/29 04:44:34;;;;;;;18.17;14.35;;;;;;;5.93;100.00;97297.25;5110526;28;20071;-45
2022/04/29 04:47:05;;;;;;;20.45;16.17;;;;;;;6.86;100.00;97298.28;5127473;27;20077;-45
2022/04/29 04:49:33;;;;;;;17.95;15.73;;;;;;;7.52;100.00;97291.22;5130592;27;20460;-49
2022/04/29 04:52:02;;;;;;;19.50;17.50;;;;;;;8.48;100.00;97291.47;5130942;27;20716;-50
2022/04/29 04:54:30;;;;;;;18.40;16.38;;;;;;;8.97;100.00;97289.66;5130844;27;20069;-46
2022/04/29 04:56:59;;;;;;;18.60;15.00;;;;;;;9.75;100.00;97291.63;5114454;27;20065;-45
2022/04/29 04:59:27;;;;;;;15.43;13.90;;;;;;;10.19;100.00;97282.88;5101106;28;20067;-46
2022/04/29 05:01:57;;;;;;;16.13;14.48;;;;;;;10.59;100.00;97287.59;5126857;27;20078;-48
2022/04/29 05:04:27;;;;;;;17.13;13.88;;;;;;;11.27;100.00;97276.78;5125795;27;20066;-45
2022/04/29 05:06:55;;;;;;;15.73;13.83;;;;;;;11.35;100.00;97284.88;5122980;27;20066;-51
2022/04/29 05:09:24;;;;;;;14.40;12.93;;;;;;;11.75;100.00;97278.88;5130234;27;20058;-47
2022/04/29 05:11:52;;;;;;;13.80;12.40;;;;;;;11.88;100.00;97284.81;5130713;27;20092;-50
2022/04/29 05:14:34;;;;;;;14.35;11.98;;;;;;;12.26;100.00;97277.97;5109047;28;20063;-46
2022/04/29 05:17:04;;;;;;;14.20;12.70;;;;;;;11.88;100.00;97277.72;5109629;28;20059;-48
2022/04/29 05:19:34;;;;;;;15.57;11.75;;;;;;;11.57;100.00;97287.41;5122759;27;20085;-52
2022/04/29 05:22:02;;;;;;;13.20;11.90;;;;;;;12.48;100.00;97284.84;5120756;27;20074;-48
2022/04/29 05:24:31;;;;;;;13.65;12.25;;;;;;;12.54;100.00;97290.44;5108839;28;20447;-55
2022/04/29 05:26:59;;;;;;;13.63;11.98;;;;;;;12.58;100.00;97286.53;5109101;28;20485;-51
2022/04/29 05:29:27;;;;;;;13.68;11.23;;;;;;;12.80;100.00;97284.59;5104875;28;20249;-50
2022/04/29 05:31:56;;;;;;;15.25;10.68;;;;;;;12.52;100.00;97276.50;5109197;28;20528;-52
2022/04/29 05:34:24;;;;;;;13.45;11.57;;;;;;;11.90;100.00;97284.66;5109269;27;20067;-56
2022/04/29 05:36:54;;;;;;;15.52;11.88;;;;;;;11.88;100.00;97275.06;5103886;28;20072;-54
2022/04/29 05:42:19;;;;;;;15.38;13.60;;;;;;;10.95;100.00;97284.75;5094669;27;20088;-51
2022/04/29 05:44:47;;;;;;;17.83;13.52;;;;;;;10.52;100.00;97289.06;5109417;28;20090;-50
2022/04/29 05:47:15;;;;;;;15.70;14.10;;;;;;;10.58;100.00;97288.56;5104785;28;20059;-47
2022/04/29 05:49:43;;;;;;;15.18;13.68;;;;;;;10.60;100.00;97289.31;5108874;27;20082;-49
2022/04/29 05:52:14;;;;;;;17.45;14.35;;;;;;;10.57;100.00;97289.53;5108965;27;20075;-48
2022/04/29 05:54:42;;;;;;;19.05;14.57;;;;;;;10.28;100.00;97291.03;5109102;28;20764;-50
2022/04/29 05:57:12;;;;;;;17.25;13.82;;;;;;;10.61;100.00;97293.59;5108688;28;20114;-54
2022/04/29 05:59:40;;;;;;;16.58;14.45;;;;;;;10.62;100.00;97294.44;5105307;28;20075;-50
2022/04/29 06:02:09;;;;;;;16.60;14.52;;;;;;;10.56;100.00;97290.47;5105707;28;20067;-52
2022/04/29 06:04:38;;;;;;;16.05;14.35;;;;;;;10.41;100.00;97292.56;5122135;27;20059;-52
2022/04/29 06:07:06;;;;;;;17.77;14.20;;;;;;;10.38;100.00;97286.69;5129307;27;20070;-51
2022/04/29 06:09:35;;;;;;;20.13;14.70;;;;;;;10.64;100.00;97293.34;5128827;27;20070;-55
2022/04/29 06:12:05;;;;;;;16.20;14.03;;;;;;;10.95;100.00;97290.84;5128632;27;20502;-48
2022/04/29 06:14:35;;;;;;;18.48;14.50;;;;;;;10.69;100.00;97293.81;5108874;28;20492;-47
2022/04/29 06:17:04;;;;;;;17.10;13.98;;;;;;;10.79;100.00;97295.72;5108805;28;20102;-45
2022/04/29 06:19:32;;;;;;;15.25;13.65;;;;;;;11.16;100.00;97289.06;5108466;28;20078;-48
2022/04/29 06:22:00;;;;;;;17.02;13.02;;;;;;;11.33;100.00;97292.94;5108732;28;20067;-52
2022/04/29 06:24:29;;;;;;;17.25;13.65;;;;;;;11.42;100.00;97288.69;5108990;28;20739;-51
2022/04/29 06:27:18;;;;;;;14.95;13.23;;;;;;;11.75;100.00;97286.78;5106622;28;20419;-50
2022/04/29 06:29:46;;;;;;;18.27;13.53;;;;;;;11.77;100.00;97288.34;5101637;28;20071;-48
2022/04/29 06:32:14;;;;;;;15.25;13.65;;;;;;;11.60;100.00;97299.50;5108507;28;20070;-49
2022/04/29 06:34:43;;;;;;;18.35;13.40;;;;;;;11.88;100.00;97295.38;5108405;28;20067;-50
2022/04/29 06:37:11;;;;;;;15.60;13.65;;;;;;;12.11;100.00;97296.00;5108592;28;20059;-55
2022/04/29 06:39:40;;;;;;;17.08;13.25;;;;;;;12.45;100.00;97293.06;5108729;28;20059;-54
2022/04/29 06:42:09;;;;;;;14.90;13.30;;;;;;;12.42;100.00;97283.59;5108586;28;20122;-49
2022/04/29 06:44:39;;;;;;;18.30;14.02;;;;;;;12.55;100.00;97293.91;5109160;28;20091;-49
2022/04/29 06:47:07;;;;;;;16.02;13.23;;;;;;;12.67;100.00;97290.19;5108587;28;20064;-50
2022/04/29 06:49:36;;;;;;;14.40;12.93;;;;;;;12.98;100.00;97290.06;5108076;28;20074;-46
2022/04/29 06:52:05;;;;;;;18.20;13.68;;;;;;;12.76;100.00;97291.16;5108256;28;20074;-52
2022/04/29 06:54:34;;;;;;;13.82;11.68;;;;;;;13.47;100.00;97294.38;5107625;28;20067;-50
2022/04/29 06:57:02;;;;;;;13.32;12.02;;;;;;;13.65;100.00;97277.75;5099723;28;20083;-54
2022/04/29 06:59:31;;;;;;;14.05;12.55;;;;;;;13.87;100.00;97290.66;5106303;28;20090;-49
2022/04/29 07:02:01;;;;;;;14.55;12.60;;;;;;;13.85;100.00;97289.97;5108295;28;20063;-53
2022/04/29 07:04:31;;;;;;;16.25;13.00;;;;;;;13.95;100.00;97300.53;5108462;28;20521;-48
2022/04/29 07:07:00;;;;;;;14.55;12.95;;;;;;;14.62;100.00;97291.44;5108538;28;20453;-50
2022/04/29 07:09:28;;;;;;;13.88;12.38;;;;;;;14.21;100.00;97292.75;5107871;28;20067;-52
2022/04/29 07:12:16;;;;;;;16.27;12.10;;;;;;;14.82;100.00;97301.94;5108177;28;20090;-54
2022/04/29 07:14:44;;;;;;;15.45;11.57;;;;;;;14.78;100.00;97301.41;5108604;28;20083;-51
2022/04/29 07:17:14;;;;;;;22.30;12.82;;;;;;;15.01;100.00;97296.50;5108176;28;20067;-48
2022/04/29 07:19:43;;;;;;;17.73;12.02;;;;;;;14.95;100.00;97295.25;5107858;28;20074;-51
2022/04/29 07:22:27;;;;;;;13.38;12.02;;;;;;;14.92;100.00;97289.41;5111215;28;20097;-52
2022/04/29 07:24:56;;;;;;;13.65;11.25;;;;;;;15.19;100.00;97291.16;5111941;28;20067;-47
2022/04/29 07:27:24;;;;;;;13.05;11.10;;;;;;;14.99;100.00;97292.31;5106621;28;20068;-48
2022/04/29 07:29:52;;;;;;;13.02;11.45;;;;;;;14.71;100.00;97289.72;5106323;28;20194;-53
2022/04/29 07:32:23;;;;;;;11.38;10.27;;;;;;;14.96;100.00;97281.00;5111527;28;20074;-52
2022/04/29 07:43:09;;;;;;;16.63;11.60;;;;;;;15.64;100.00;97274.22;5120869;27;20572;-52
2022/04/29 07:45:38;;;;;;;14.73;11.40;;;;;;;15.19;100.00;97276.06;5126737;27;20068;-54
2022/04/29 07:48:09;;;;;;;13.02;11.35;;;;;;;15.44;100.00;97274.41;5108670;28;20090;-53
2022/04/29 07:50:37;;;;;;;12.18;10.95;;;;;;;15.07;100.00;97279.94;5111742;28;20087;-54
2022/04/29 07:53:06;;;;;;;12.73;11.15;;;;;;;15.52;100.00;97276.31;5103832;28;20079;-47
2022/04/29 07:55:34;;;;;;;12.27;10.35;;;;;;;15.50;100.00;97264.16;5109140;28;20134;-47
2022/04/29 07:58:03;;;;;;;12.25;11.05;;;;;;;15.80;100.00;97274.38;5104671;28;20071;-49
2022/04/29 08:00:32;;;;;;;12.88;11.52;;;;;;;16.17;100.00;97265.22;5110366;28;20081;-52
2022/04/29 08:03:22;;;;;;;12.07;10.80;;;;;;;16.35;100.00;97260.66;5110563;28;20074;-49
2022/04/29 08:05:51;;;;;;;15.40;10.40;;;;;;;16.07;100.00;97254.72;5111553;28;20087;-50
2022/04/29 08:08:19;;;;;;;12.52;10.10;;;;;;;16.76;100.00;97252.81;5110990;28;20070;-53
2022/04/29 08:10:47;;;;;;;9.90;8.82;;;;;;;16.58;87.65;97247.56;5110811;27;20067;-51
2022/04/29 08:13:16;;;;;;;12.27;9.02;;;;;;;16.84;79.39;97238.66;5110731;28;20540;-48
2022/04/29 08:15:46;;;;;;;10.32;8.85;;;;;;;16.80;77.89;97246.16;5110716;28;20095;-50
2022/04/29 08:18:14;;;;;;;10.00;8.70;;;;;;;17.36;82.30;97243.66;5111065;28;20077;-49
2022/04/29 08:20:44;;;;;;;11.27;8.50;;;;;;;17.05;61.57;97233.66;5111309;28;20074;-46
2022/04/29 08:23:12;;;;;;;10.70;7.27;;;;;;;16.87;55.44;97240.16;5110576;28;20067;-52
2022/04/29 08:25:41;;;;;;;9.68;7.30;;;;;;;17.08;51.91;97244.00;5102441;28;20457;-51
2022/04/29 08:28:09;;;;;;;10.13;7.18;;;;;;;17.47;47.90;97237.97;5107088;27;20090;-54
2022/04/29 08:30:38;;;;;;;10.52;7.72;;;;;;;17.38;48.50;97232.81;5107965;28;20067;-52
2022/04/29 08:33:06;;;;;;;9.75;7.93;;;;;;;17.61;47.77;97219.63;5109441;28;20086;-53
2022/04/29 08:35:35;;;;;;;9.70;8.35;;;;;;;17.10;50.45;97233.16;5109786;28;20067;-47
2022/04/29 08:38:08;;;;;;;9.18;8.10;;;;;;;17.59;47.59;97235.81;5110515;27;20070;-52
2022/04/29 08:40:41;;;;;;;8.93;7.88;;;;;;;17.62;44.55;97227.47;5110510;27;20078;-49
2022/04/29 08:43:10;;;;;;;10.02;7.82;;;;;;;17.71;46.16;97231.78;5105563;28;20067;-48
2022/04/29 08:45:39;;;;;;;9.25;7.45;;;;;;;17.62;44.82;97229.28;5110424;28;20059;-45
2022/04/29 08:48:08;;;;;;;10.50;8.52;;;;;;;17.42;47.74;97229.66;5109054;28;20105;-55
2022/04/29 08:50:36;;;;;;;10.80;8.10;;;;;;;17.77;43.98;97223.13;5104802;28;20075;-48
2022/04/29 08:53:06;;;;;;;10.75;8.05;;;;;;;17.87;44.51;97220.25;5116846;27;20687;-45
2022/04/29 08:58:39;;;;;;;9.85;7.85;;;;;;;18.21;42.06;97211.97;5107204;28;20470;-51
2022/04/29 09:01:09;;;;;;;11.88;8.68;;;;;;;18.33;43.10;97203.53;5109948;28;20460;-52
2022/04/29 09:03:39;;;;;;;13.27;6.68;;;;;;;17.75;42.13;97206.41;5110149;28;20051;-47
2022/04/29 09:06:07;;;;;;;12.13;8.50;;;;;;;17.90;42.80;97198.56;5109393;28;20079;-50
2022/04/29 09:08:41;;;;;;;9.15;7.05;;;;;;;18.29;41.67;97212.91;5110414;28;20462;-48
2022/04/29 09:11:10;;;;;;;8.88;7.45;;;;;;;17.94;42.58;97207.91;5111341;27;20059;-52
2022/04/29 09:13:40;;;;;;;9.25;8.02;;;;;;;17.40;42.77;97199.66;5109709;27;20176;-51
2022/04/29 09:16:11;;;;;;;10.10;8.10;;;;;;;17.56;42.37;97196.16;5109571;28;20078;-46
2022/04/29 09:18:40;;;;;;;11.43;8.10;;;;;;;17.56;42.88;97194.31;5110054;28;20063;-46
2022/04/29 09:21:11;;;;;;;9.38;7.57;;;;;;;17.48;40.63;97201.47;5109464;28;20113;-55
2022/04/29 09:23:42;;;;;;;8.73;7.55;;;;;;;17.52;40.38;97200.97;5110306;28;20059;-46
2022/04/29 09:26:20;;;;;;;9.38;7.68;;;;;;;17.95;41.43;97198.88;5103596;28;20063;-49
2022/04/29 09:28:49;;;;;;;11.05;7.40;;;;;;;17.85;40.49;97184.91;5099254;28;20074;-48
2022/04/29 09:31:17;;;;;;;9.43;7.80;;;;;;;17.47;40.81;97187.31;5109479;28;20653;-47
2022/04/29 09:33:53;;;;;;;11.50;8.48;;;;;;;17.80;41.25;97195.28;5104909;28;20426;-52
2022/04/29 09:36:22;;;;;;;10.25;7.45;;;;;;;17.56;40.99;97196.16;5106497;28;20501;-50
2022/04/29 09:41:55;;;;;;;8.80;7.93;;;;;;;18.05;40.89;97200.50;5064046;28;20462;-45
2022/04/29 09:44:30;;;;;;;13.05;8.07;;;;;;;17.70;40.14;97192.75;5064356;28;20052;-51
2022/04/29 09:47:09;;;;;;;11.35;8.15;;;;;;;17.93;40.41;97194.72;5083222;28;20649;-53
2022/04/29 09:49:38;;;;;;;8.23;7.43;;;;;;;18.00;40.01;97190.38;5102580;28;20063;-46
2022/04/29 09:52:07;;;;;;;9.48;7.15;;;;;;;17.94;39.93;97181.22;5108047;27;20071;-46
2022/04/29 09:54:38;;;;;;;9.05;7.53;;;;;;;18.26;41.14;97177.53;5106245;28;20067;-52
2022/04/29 09:57:11;;;;;;;11.52;7.28;;;;;;;18.32;40.70;97183.19;5104387;27;20102;-48
2022/04/29 09:59:41;;;;;;;9.20;6.72;;;;;;;18.24;40.52;97174.22;5103637;28;20078;-52
2022/04/29 10:02:11;;;;;;;9.90;7.40;;;;;;;18.66;42.20;97186.31;5109287;28;20062;-50
2022/04/29 10:04:42;;;;;;;9.88;7.03;;;;;;;18.39;39.89;97171.63;5109125;28;20086;-48
2022/04/29 10:07:12;;;;;;;8.30;6.43;;;;;;;18.08;39.87;97173.47;5110621;28;20444;-49
2022/04/29 10:09:45;;;;;;;7.63;6.75;;;;;;;18.37;39.92;97176.31;5109178;28;20091;-51
2022/04/29 10:12:16;;;;;;;10.65;7.05;;;;;;;18.64;39.32;97174.16;5107245;28;20079;-50
2022/04/29 10:14:45;;;;;;;7.43;6.50;;;;;;;18.48;40.00;97175.09;5109132;28;20500;-46
2022/04/29 10:22:51;;;;;;;9.20;7.15;;;;;;;18.42;39.21;97165.94;5125002;27;20442;-50
2022/04/29 10:25:21;;;;;;;9.30;7.70;;;;;;;18.61;38.79;97161.97;5115542;27;20071;-46
2022/04/29 10:27:51;;;;;;;10.82;8.30;;;;;;;18.30;39.79;97162.00;5105938;28;20032;-50
2022/04/29 10:30:26;;;;;;;9.40;7.57;;;;;;;18.07;38.90;97166.50;5105305;28;20072;-48
2022/04/29 10:33:06;;;;;;;12.10;8.20;;;;;;;18.52;40.34;97163.06;5109231;28;20079;-53
2022/04/29 10:35:49;;;;;;;12.32;7.57;;;;;;;18.90;40.56;97161.28;5128957;28;20472;-46
2022/04/29 10:38:18;;;;;;;13.38;7.90;;;;;;;18.57;39.18;97162.50;5133003;27;20079;-50
2022/04/29 10:40:50;;;;;;;10.80;8.35;;;;;;;19.11;38.73;97146.41;5126675;27;20074;-49
2022/04/29 10:43:20;;;;;;;9.07;6.68;;;;;;;18.81;40.15;97145.50;5118158;27;20075;-48
2022/04/29 10:46:20;;;;;;;9.38;8.45;;;;;;;19.36;40.14;97152.34;5121755;28;20062;-49
2022/04/29 10:48:49;;;;;;;8.57;7.35;;;;;;;19.61;38.01;97142.19;5097480;28;20063;-50
2022/04/29 10:51:18;;;;;;;10.15;7.65;;;;;;;19.58;39.31;97139.88;5101962;28;20075;-52
2022/04/29 10:53:48;;;;;;;10.55;9.38;;;;;;;19.59;38.86;97136.22;5109248;28;20079;-52
2022/04/29 10:56:37;;;;;;;8.75;7.45;;;;;;;19.82;38.38;97145.00;5109720;28;20055;-51
2022/04/29 10:59:14;;;;;;;9.90;7.88;;;;;;;19.03;37.30;97141.97;5103609;28;20079;-52
2022/04/29 11:01:48;;;;;;;10.77;7.38;;;;;;;19.66;36.44;97135.31;5110840;28;20454;-52
2022/04/29 11:04:45;;;;;;;9.38;8.20;;;;;;;19.78;37.03;97130.31;5112319;27;20070;-49
2022/04/29 11:07:34;;;;;;;9.48;7.57;;;;;;;19.90;37.57;97128.84;5088234;28;20078;-50
2022/04/29 11:10:02;;;;;;;11.45;8.15;;;;;;;19.59;37.33;97118.31;5111874;28;20070;-49
2022/04/29 11:12:32;;;;;;;11.27;8.25;;;;;;;19.72;37.62;97116.84;5112129;28;20056;-50
2022/04/29 11:15:09;;;;;;;10.00;7.65;;;;;;;19.78;37.30;97116.94;5112377;28;20577;-48
2022/04/29 11:17:38;;;;;;;8.93;7.32;;;;;;;20.05;37.25;97106.56;5117081;27;21513;-53
2022/04/29 11:20:17;;;;;;;11.88;7.40;;;;;;;20.22;37.94;97110.66;5111947;28;20063;-52
2022/04/29 11:25:51;;;;;;;8.15;7.35;;;;;;;19.87;38.26;97110.47;5106067;27;20059;-52
2022/04/29 11:28:21;;;;;;;8.38;6.47;;;;;;;20.06;37.32;97101.03;5109513;28;20074;-52
2022/04/29 11:30:51;;;;;;;10.25;7.47;;;;;;;19.99;38.21;97089.38;5108576;27;20056;-53
2022/04/29 11:33:23;;;;;;;10.20;7.45;;;;;;;21.12;37.46;97095.00;5111687;27;20070;-50
2022/04/29 11:35:53;;;;;;;10.63;7.45;;;;;;;19.71;36.44;97086.59;5111229;28;20085;-48
2022/04/29 11:38:24;;;;;;;9.18;7.68;;;;;;;20.56;36.63;97090.44;5116630;27;20085;-49
2022/04/29 11:40:53;;;;;;;7.80;6.57;;;;;;;21.00;35.98;97089.38;5111566;28;20309;-54
2022/04/29 11:43:24;;;;;;;8.45;7.20;;;;;;;20.05;36.05;97096.66;5111647;28;20524;-49
2022/04/29 11:46:05;;;;;;;9.18;6.85;;;;;;;20.65;35.48;97088.44;5106308;28;20060;-51
2022/04/29 11:48:35;;;;;;;9.15;6.68;;;;;;;20.91;36.31;97077.94;5111162;27;20063;-49
2022/04/29 11:51:05;;;;;;;9.23;7.00;;;;;;;21.19;35.88;97069.06;5111450;27;20289;-48
2022/04/29 11:53:34;;;;;;;7.57;6.72;;;;;;;20.65;35.40;97077.72;5112094;28;20501;-50
2022/04/29 11:56:02;;;;;;;9.23;6.90;;;;;;;20.19;35.30;97080.75;5111479;28;20446;-49
2022/04/29 11:58:37;;;;;;;8.65;7.32;;;;;;;20.48;35.02;97069.13;5106551;27;20059;-49
2022/04/29 12:01:06;;;;;;;7.55;6.72;;;;;;;21.10;37.43;97066.53;5107849;28;20067;-54